sensor_id;sensor_type;location;lat;lon;timestamp;P1;durP1;ratioP1;P2;durP2;ratioP2
29302;SDS011;60019;45.556;12.004;2023-08-21T00:03:19;11.25;;;10.05;;
29302;SDS011;60019;45.556;12.004;2023-08-21T00:09:21;12.55;;;10.48;;
29302;SDS011;60019;45.556;12.004;2023-08-21T00:15:23;13.48;;;10.15;;
29302;SDS011;60019;45.556;12.004;2023-08-21T00:21:25;12.40;;;11.10;;
29302;SDS011;60019;45.556;12.004;2023-08-21T00:27:26;13.27;;;11.85;;
29302;SDS011;60019;45.556;12.004;2023-08-21T00:33:30;11.30;;;10.20;;
29302;SDS011;60019;45.556;12.004;2023-08-21T00:39:32;11.10;;;10.00;;
29302;SDS011;60019;45.556;12.004;2023-08-21T00:45:33;12.70;;;11.10;;
29302;SDS011;60019;45.556;12.004;2023-08-21T00:51:35;12.82;;;11.18;;
29302;SDS011;60019;45.556;12.004;2023-08-21T00:57:38;19.20;;;11.02;;
29302;SDS011;60019;45.556;12.004;2023-08-21T01:03:41;10.85;;;9.75;;
29302;SDS011;60019;45.556;12.004;2023-08-21T01:09:49;12.88;;;10.63;;
29302;SDS011;60019;45.556;12.004;2023-08-21T01:15:51;12.48;;;10.25;;
29302;SDS011;60019;45.556;12.004;2023-08-21T01:21:55;12.13;;;10.57;;
29302;SDS011;60019;45.556;12.004;2023-08-21T01:27:57;11.35;;;10.20;;
29302;SDS011;60019;45.556;12.004;2023-08-21T01:33:59;13.98;;;10.10;;
29302;SDS011;60019;45.556;12.004;2023-08-21T01:40:01;11.57;;;9.75;;
29302;SDS011;60019;45.556;12.004;2023-08-21T01:46:03;13.30;;;9.60;;
29302;SDS011;60019;45.556;12.004;2023-08-21T01:52:05;13.70;;;9.45;;
29302;SDS011;60019;45.556;12.004;2023-08-21T01:58:07;12.15;;;10.70;;
29302;SDS011;60019;45.556;12.004;2023-08-21T02:04:09;12.55;;;9.88;;
29302;SDS011;60019;45.556;12.004;2023-08-21T02:10:10;15.15;;;10.27;;
29302;SDS011;60019;45.556;12.004;2023-08-21T02:16:12;10.77;;;9.68;;
29302;SDS011;60019;45.556;12.004;2023-08-21T02:22:15;10.75;;;9.65;;
29302;SDS011;60019;45.556;12.004;2023-08-21T02:28:17;10.32;;;9.27;;
29302;SDS011;60019;45.556;12.004;2023-08-21T02:34:19;10.25;;;9.25;;
29302;SDS011;60019;45.556;12.004;2023-08-21T02:40:21;11.77;;;10.55;;
29302;SDS011;60019;45.556;12.004;2023-08-21T02:46:23;11.15;;;10.05;;
29302;SDS011;60019;45.556;12.004;2023-08-21T02:52:25;11.43;;;9.02;;
29302;SDS011;60019;45.556;12.004;2023-08-21T02:58:26;11.18;;;9.95;;
29302;SDS011;60019;45.556;12.004;2023-08-21T03:04:28;13.38;;;10.70;;
29302;SDS011;60019;45.556;12.004;2023-08-21T03:10:30;11.40;;;10.25;;
29302;SDS011;60019;45.556;12.004;2023-08-21T03:16:35;12.75;;;11.13;;
29302;SDS011;60019;45.556;12.004;2023-08-21T03:22:36;12.18;;;10.55;;
29302;SDS011;60019;45.556;12.004;2023-08-21T03:28:38;11.35;;;9.80;;
29302;SDS011;60019;45.556;12.004;2023-08-21T03:34:40;12.18;;;10.93;;
29302;SDS011;60019;45.556;12.004;2023-08-21T03:40:42;10.63;;;9.63;;
29302;SDS011;60019;45.556;12.004;2023-08-21T03:46:45;10.70;;;9.55;;
29302;SDS011;60019;45.556;12.004;2023-08-21T03:52:46;12.07;;;10.77;;
29302;SDS011;60019;45.556;12.004;2023-08-21T03:58:48;10.80;;;9.70;;
29302;SDS011;60019;45.556;12.004;2023-08-21T04:04:50;10.85;;;9.40;;
29302;SDS011;60019;45.556;12.004;2023-08-21T04:10:53;9.95;;;8.95;;
29302;SDS011;60019;45.556;12.004;2023-08-21T04:16:59;10.40;;;9.30;;
29302;SDS011;60019;45.556;12.004;2023-08-21T04:23:01;12.43;;;10.32;;
29302;SDS011;60019;45.556;12.004;2023-08-21T04:29:03;11.93;;;10.70;;
29302;SDS011;60019;45.556;12.004;2023-08-21T04:35:05;11.20;;;10.10;;
29302;SDS011;60019;45.556;12.004;2023-08-21T04:41:09;13.38;;;11.85;;
29302;SDS011;60019;45.556;12.004;2023-08-21T04:47:22;14.18;;;10.52;;
29302;SDS011;60019;45.556;12.004;2023-08-21T04:53:28;12.50;;;9.55;;
29302;SDS011;60019;45.556;12.004;2023-08-21T04:59:32;14.18;;;11.02;;
29302;SDS011;60019;45.556;12.004;2023-08-21T05:05:34;14.02;;;10.15;;
29302;SDS011;60019;45.556;12.004;2023-08-21T05:11:36;12.82;;;10.48;;
29302;SDS011;60019;45.556;12.004;2023-08-21T05:17:40;10.38;;;9.15;;
29302;SDS011;60019;45.556;12.004;2023-08-21T05:23:42;11.07;;;9.63;;
29302;SDS011;60019;45.556;12.004;2023-08-21T05:29:45;12.18;;;9.95;;
29302;SDS011;60019;45.556;12.004;2023-08-21T05:35:47;10.07;;;9.07;;
29302;SDS011;60019;45.556;12.004;2023-08-21T05:41:49;10.88;;;9.82;;
29302;SDS011;60019;45.556;12.004;2023-08-21T05:47:51;13.13;;;10.63;;
29302;SDS011;60019;45.556;12.004;2023-08-21T05:53:52;14.63;;;10.98;;
29302;SDS011;60019;45.556;12.004;2023-08-21T05:59:55;13.02;;;11.68;;
29302;SDS011;60019;45.556;12.004;2023-08-21T06:05:57;12.05;;;10.25;;
29302;SDS011;60019;45.556;12.004;2023-08-21T06:11:59;12.60;;;9.68;;
29302;SDS011;60019;45.556;12.004;2023-08-21T06:18:04;22.00;;;9.85;;
29302;SDS011;60019;45.556;12.004;2023-08-21T06:24:06;11.15;;;9.27;;
29302;SDS011;60019;45.556;12.004;2023-08-21T06:30:08;12.00;;;10.80;;
29302;SDS011;60019;45.556;12.004;2023-08-21T06:36:11;13.40;;;10.50;;
29302;SDS011;60019;45.556;12.004;2023-08-21T06:42:13;13.02;;;11.40;;
29302;SDS011;60019;45.556;12.004;2023-08-21T06:48:21;14.93;;;10.70;;
29302;SDS011;60019;45.556;12.004;2023-08-21T06:54:23;11.95;;;10.05;;
29302;SDS011;60019;45.556;12.004;2023-08-21T07:00:25;13.23;;;9.38;;
29302;SDS011;60019;45.556;12.004;2023-08-21T07:06:27;13.25;;;10.25;;
29302;SDS011;60019;45.556;12.004;2023-08-21T07:12:30;11.35;;;10.20;;
29302;SDS011;60019;45.556;12.004;2023-08-21T07:18:32;12.40;;;10.18;;
29302;SDS011;60019;45.556;12.004;2023-08-21T07:24:34;11.30;;;10.15;;
29302;SDS011;60019;45.556;12.004;2023-08-21T07:30:39;11.38;;;10.18;;
29302;SDS011;60019;45.556;12.004;2023-08-21T07:36:40;12.88;;;10.82;;
29302;SDS011;60019;45.556;12.004;2023-08-21T07:42:42;10.73;;;9.55;;
29302;SDS011;60019;45.556;12.004;2023-08-21T07:48:44;10.60;;;9.52;;
29302;SDS011;60019;45.556;12.004;2023-08-21T07:54:46;15.80;;;12.00;;
29302;SDS011;60019;45.556;12.004;2023-08-21T08:00:48;14.25;;;11.80;;
29302;SDS011;60019;45.556;12.004;2023-08-21T08:06:50;9.88;;;8.88;;
29302;SDS011;60019;45.556;12.004;2023-08-21T08:12:51;10.70;;;9.63;;
29302;SDS011;60019;45.556;12.004;2023-08-21T08:18:54;12.65;;;9.00;;
29302;SDS011;60019;45.556;12.004;2023-08-21T08:24:56;9.73;;;8.73;;
29302;SDS011;60019;45.556;12.004;2023-08-21T08:30:58;11.07;;;10.18;;
29302;SDS011;60019;45.556;12.004;2023-08-21T08:37:01;10.23;;;9.30;;
29302;SDS011;60019;45.556;12.004;2023-08-21T08:43:02;11.80;;;10.40;;
29302;SDS011;60019;45.556;12.004;2023-08-21T08:49:06;14.30;;;10.63;;
29302;SDS011;60019;45.556;12.004;2023-08-21T08:55:08;9.38;;;8.48;;
29302;SDS011;60019;45.556;12.004;2023-08-21T09:01:10;11.98;;;9.07;;
29302;SDS011;60019;45.556;12.004;2023-08-21T09:07:12;13.68;;;11.88;;
29302;SDS011;60019;45.556;12.004;2023-08-21T09:13:18;10.05;;;9.13;;
29302;SDS011;60019;45.556;12.004;2023-08-21T09:19:21;10.93;;;8.70;;
29302;SDS011;60019;45.556;12.004;2023-08-21T09:25:26;11.82;;;9.85;;
29302;SDS011;60019;45.556;12.004;2023-08-21T09:31:32;9.18;;;8.30;;
29302;SDS011;60019;45.556;12.004;2023-08-21T09:37:34;9.23;;;8.32;;
29302;SDS011;60019;45.556;12.004;2023-08-21T09:43:40;10.50;;;9.45;;
29302;SDS011;60019;45.556;12.004;2023-08-21T09:49:43;11.37;;;8.67;;
29302;SDS011;60019;45.556;12.004;2023-08-21T09:55:45;10.43;;;9.43;;
29302;SDS011;60019;45.556;12.004;2023-08-21T10:01:47;8.63;;;7.82;;
29302;SDS011;60019;45.556;12.004;2023-08-21T10:07:51;13.70;;;9.90;;
29302;SDS011;60019;45.556;12.004;2023-08-21T10:13:54;8.40;;;7.68;;
29302;SDS011;60019;45.556;12.004;2023-08-21T10:20:02;9.23;;;8.38;;
29302;SDS011;60019;45.556;12.004;2023-08-21T10:26:07;8.95;;;8.15;;
29302;SDS011;60019;45.556;12.004;2023-08-21T10:32:09;9.18;;;7.72;;
29302;SDS011;60019;45.556;12.004;2023-08-21T10:38:12;7.78;;;7.05;;
29302;SDS011;60019;45.556;12.004;2023-08-21T10:44:15;7.93;;;7.22;;
29302;SDS011;60019;45.556;12.004;2023-08-21T10:50:16;8.18;;;7.38;;
29302;SDS011;60019;45.556;12.004;2023-08-21T10:56:18;8.13;;;7.43;;
29302;SDS011;60019;45.556;12.004;2023-08-21T11:02:20;8.98;;;8.18;;
29302;SDS011;60019;45.556;12.004;2023-08-21T11:08:22;8.00;;;7.30;;
29302;SDS011;60019;45.556;12.004;2023-08-21T11:14:27;10.55;;;8.20;;
29302;SDS011;60019;45.556;12.004;2023-08-21T11:26:30;34.70;;;23.80;;
29302;SDS011;60019;45.556;12.004;2023-08-21T11:32:32;12.73;;;11.45;;
29302;SDS011;60019;45.556;12.004;2023-08-21T11:38:34;14.38;;;11.40;;
29302;SDS011;60019;45.556;12.004;2023-08-21T11:44:39;12.63;;;9.68;;
29302;SDS011;60019;45.556;12.004;2023-08-21T11:50:41;11.48;;;9.40;;
29302;SDS011;60019;45.556;12.004;2023-08-21T11:56:43;9.52;;;8.57;;
29302;SDS011;60019;45.556;12.004;2023-08-21T12:02:54;10.57;;;9.50;;
29302;SDS011;60019;45.556;12.004;2023-08-21T12:08:57;9.23;;;8.32;;
29302;SDS011;60019;45.556;12.004;2023-08-21T12:14:58;9.02;;;7.53;;
29302;SDS011;60019;45.556;12.004;2023-08-21T12:21:01;7.80;;;6.93;;
29302;SDS011;60019;45.556;12.004;2023-08-21T12:27:06;7.78;;;7.07;;
29302;SDS011;60019;45.556;12.004;2023-08-21T12:33:10;7.75;;;7.15;;
29302;SDS011;60019;45.556;12.004;2023-08-21T12:39:13;7.50;;;6.88;;
29302;SDS011;60019;45.556;12.004;2023-08-21T12:45:17;20.45;;;15.57;;
29302;SDS011;60019;45.556;12.004;2023-08-21T12:51:19;12.52;;;11.20;;
29302;SDS011;60019;45.556;12.004;2023-08-21T12:57:22;9.30;;;8.38;;
29302;SDS011;60019;45.556;12.004;2023-08-21T13:03:23;9.45;;;8.50;;
29302;SDS011;60019;45.556;12.004;2023-08-21T13:09:25;9.25;;;8.45;;
29302;SDS011;60019;45.556;12.004;2023-08-21T13:15:27;10.13;;;9.13;;
29302;SDS011;60019;45.556;12.004;2023-08-21T13:21:29;9.80;;;7.93;;
29302;SDS011;60019;45.556;12.004;2023-08-21T13:27:31;9.32;;;8.52;;
29302;SDS011;60019;45.556;12.004;2023-08-21T13:33:55;9.52;;;8.63;;
29302;SDS011;60019;45.556;12.004;2023-08-21T13:39:56;10.38;;;9.30;;
29302;SDS011;60019;45.556;12.004;2023-08-21T13:46:00;13.35;;;8.98;;
29302;SDS011;60019;45.556;12.004;2023-08-21T13:52:02;10.73;;;8.65;;
29302;SDS011;60019;45.556;12.004;2023-08-21T13:58:03;11.50;;;8.73;;
29302;SDS011;60019;45.556;12.004;2023-08-21T14:04:05;10.95;;;8.15;;
29302;SDS011;60019;45.556;12.004;2023-08-21T14:10:08;8.38;;;7.65;;
29302;SDS011;60019;45.556;12.004;2023-08-21T14:16:09;8.48;;;7.63;;
29302;SDS011;60019;45.556;12.004;2023-08-21T14:22:11;9.75;;;8.77;;
29302;SDS011;60019;45.556;12.004;2023-08-21T14:28:13;7.70;;;6.78;;
29302;SDS011;60019;45.556;12.004;2023-08-21T14:34:15;7.82;;;7.15;;
29302;SDS011;60019;45.556;12.004;2023-08-21T14:40:17;11.93;;;7.22;;
29302;SDS011;60019;45.556;12.004;2023-08-21T14:46:18;9.57;;;8.75;;
29302;SDS011;60019;45.556;12.004;2023-08-21T14:52:20;7.47;;;6.78;;
29302;SDS011;60019;45.556;12.004;2023-08-21T14:58:22;8.15;;;6.40;;
29302;SDS011;60019;45.556;12.004;2023-08-21T15:04:24;8.60;;;7.80;;
29302;SDS011;60019;45.556;12.004;2023-08-21T15:10:26;8.30;;;7.30;;
29302;SDS011;60019;45.556;12.004;2023-08-21T15:16:27;7.97;;;7.32;;
29302;SDS011;60019;45.556;12.004;2023-08-21T15:22:29;8.40;;;7.57;;
29302;SDS011;60019;45.556;12.004;2023-08-21T15:28:31;7.75;;;7.07;;
29302;SDS011;60019;45.556;12.004;2023-08-21T15:34:33;8.10;;;7.40;;
29302;SDS011;60019;45.556;12.004;2023-08-21T15:40:34;8.52;;;7.50;;
29302;SDS011;60019;45.556;12.004;2023-08-21T15:46:36;7.60;;;6.90;;
29302;SDS011;60019;45.556;12.004;2023-08-21T15:52:38;7.85;;;7.10;;
29302;SDS011;60019;45.556;12.004;2023-08-21T15:58:40;7.40;;;6.80;;
29302;SDS011;60019;45.556;12.004;2023-08-21T16:04:43;9.27;;;7.00;;
29302;SDS011;60019;45.556;12.004;2023-08-21T16:10:45;7.85;;;7.15;;
29302;SDS011;60019;45.556;12.004;2023-08-21T16:16:47;11.88;;;8.07;;
29302;SDS011;60019;45.556;12.004;2023-08-21T16:22:49;7.88;;;7.18;;
29302;SDS011;60019;45.556;12.004;2023-08-21T16:28:51;8.95;;;8.05;;
29302;SDS011;60019;45.556;12.004;2023-08-21T16:34:53;10.18;;;7.47;;
29302;SDS011;60019;45.556;12.004;2023-08-21T16:40:55;8.43;;;7.20;;
29302;SDS011;60019;45.556;12.004;2023-08-21T16:46:56;6.95;;;6.35;;
29302;SDS011;60019;45.556;12.004;2023-08-21T16:52:58;7.53;;;6.60;;
29302;SDS011;60019;45.556;12.004;2023-08-21T16:59:00;6.82;;;6.13;;
29302;SDS011;60019;45.556;12.004;2023-08-21T17:05:02;6.95;;;6.32;;
29302;SDS011;60019;45.556;12.004;2023-08-21T17:11:06;7.80;;;6.95;;
29302;SDS011;60019;45.556;12.004;2023-08-21T17:17:07;7.65;;;7.00;;
29302;SDS011;60019;45.556;12.004;2023-08-21T17:23:09;9.23;;;7.40;;
29302;SDS011;60019;45.556;12.004;2023-08-21T17:29:11;9.05;;;7.03;;
29302;SDS011;60019;45.556;12.004;2023-08-21T17:41:46;11.15;;;7.18;;
29302;SDS011;60019;45.556;12.004;2023-08-21T17:47:48;10.90;;;8.10;;
29302;SDS011;60019;45.556;12.004;2023-08-21T17:53:50;7.60;;;6.88;;
29302;SDS011;60019;45.556;12.004;2023-08-21T17:59:52;7.53;;;6.80;;
29302;SDS011;60019;45.556;12.004;2023-08-21T18:05:53;8.20;;;7.13;;
29302;SDS011;60019;45.556;12.004;2023-08-21T18:11:55;6.70;;;6.18;;
29302;SDS011;60019;45.556;12.004;2023-08-21T18:17:57;8.18;;;7.30;;
29302;SDS011;60019;45.556;12.004;2023-08-21T18:23:59;121.72;;;71.63;;
29302;SDS011;60019;45.556;12.004;2023-08-21T18:30:00;115.22;;;70.72;;
29302;SDS011;60019;45.556;12.004;2023-08-21T18:36:04;41.83;;;27.98;;
29302;SDS011;60019;45.556;12.004;2023-08-21T18:42:06;17.20;;;14.75;;
29302;SDS011;60019;45.556;12.004;2023-08-21T18:48:08;11.43;;;10.00;;
29302;SDS011;60019;45.556;12.004;2023-08-21T18:54:10;13.07;;;8.10;;
29302;SDS011;60019;45.556;12.004;2023-08-21T19:00:12;7.50;;;6.78;;
29302;SDS011;60019;45.556;12.004;2023-08-21T19:06:14;8.10;;;7.13;;
29302;SDS011;60019;45.556;12.004;2023-08-21T19:12:16;8.55;;;7.35;;
29302;SDS011;60019;45.556;12.004;2023-08-21T19:18:19;9.00;;;7.30;;
29302;SDS011;60019;45.556;12.004;2023-08-21T19:24:20;12.70;;;8.98;;
29302;SDS011;60019;45.556;12.004;2023-08-21T19:30:22;11.48;;;7.13;;
29302;SDS011;60019;45.556;12.004;2023-08-21T19:36:24;11.15;;;7.38;;
29302;SDS011;60019;45.556;12.004;2023-08-21T19:42:25;9.52;;;8.57;;
29302;SDS011;60019;45.556;12.004;2023-08-21T19:48:27;11.13;;;8.55;;
29302;SDS011;60019;45.556;12.004;2023-08-21T19:54:29;10.48;;;8.35;;
29302;SDS011;60019;45.556;12.004;2023-08-21T20:00:31;11.18;;;8.57;;
29302;SDS011;60019;45.556;12.004;2023-08-21T20:06:33;9.75;;;8.60;;
29302;SDS011;60019;45.556;12.004;2023-08-21T20:12:34;10.52;;;8.45;;
29302;SDS011;60019;45.556;12.004;2023-08-21T20:18:37;10.27;;;9.27;;
29302;SDS011;60019;45.556;12.004;2023-08-21T20:24:39;10.60;;;8.18;;
29302;SDS011;60019;45.556;12.004;2023-08-21T20:30:41;11.65;;;9.32;;
29302;SDS011;60019;45.556;12.004;2023-08-21T20:36:43;11.40;;;9.15;;
29302;SDS011;60019;45.556;12.004;2023-08-21T20:42:45;11.85;;;8.82;;
29302;SDS011;60019;45.556;12.004;2023-08-21T20:48:47;13.63;;;12.32;;
29302;SDS011;60019;45.556;12.004;2023-08-21T20:54:48;12.88;;;11.60;;
29302;SDS011;60019;45.556;12.004;2023-08-21T21:00:51;15.27;;;11.60;;
29302;SDS011;60019;45.556;12.004;2023-08-21T21:06:53;12.05;;;10.10;;
29302;SDS011;60019;45.556;12.004;2023-08-21T21:12:56;16.58;;;11.85;;
29302;SDS011;60019;45.556;12.004;2023-08-21T21:19:00;14.57;;;12.30;;
29302;SDS011;60019;45.556;12.004;2023-08-21T21:25:02;12.48;;;11.23;;
29302;SDS011;60019;45.556;12.004;2023-08-21T21:31:05;13.80;;;12.43;;
29302;SDS011;60019;45.556;12.004;2023-08-21T21:37:06;15.07;;;12.27;;
29302;SDS011;60019;45.556;12.004;2023-08-21T21:43:08;13.00;;;11.77;;
29302;SDS011;60019;45.556;12.004;2023-08-21T21:49:10;15.88;;;11.75;;
29302;SDS011;60019;45.556;12.004;2023-08-21T21:55:12;12.63;;;10.77;;
29302;SDS011;60019;45.556;12.004;2023-08-21T22:01:14;14.75;;;13.13;;
29302;SDS011;60019;45.556;12.004;2023-08-21T22:07:15;14.25;;;12.73;;
29302;SDS011;60019;45.556;12.004;2023-08-21T22:13:17;19.80;;;16.83;;
29302;SDS011;60019;45.556;12.004;2023-08-21T22:19:19;15.32;;;13.73;;
29302;SDS011;60019;45.556;12.004;2023-08-21T22:25:21;16.35;;;12.80;;
29302;SDS011;60019;45.556;12.004;2023-08-21T22:31:22;16.08;;;14.13;;
29302;SDS011;60019;45.556;12.004;2023-08-21T22:37:24;28.25;;;18.42;;
29302;SDS011;60019;45.556;12.004;2023-08-21T22:43:26;21.60;;;16.25;;
29302;SDS011;60019;45.556;12.004;2023-08-21T22:49:28;15.23;;;13.43;;
29302;SDS011;60019;45.556;12.004;2023-08-21T22:55:29;18.63;;;13.10;;
29302;SDS011;60019;45.556;12.004;2023-08-21T23:01:35;14.32;;;12.85;;
29302;SDS011;60019;45.556;12.004;2023-08-21T23:07:37;15.20;;;12.55;;
29302;SDS011;60019;45.556;12.004;2023-08-21T23:13:39;15.20;;;13.30;;
29302;SDS011;60019;45.556;12.004;2023-08-21T23:19:40;15.63;;;13.00;;
29302;SDS011;60019;45.556;12.004;2023-08-21T23:25:42;15.77;;;12.20;;
29302;SDS011;60019;45.556;12.004;2023-08-21T23:31:44;17.60;;;13.85;;
29302;SDS011;60019;45.556;12.004;2023-08-21T23:37:46;14.02;;;12.35;;
29302;SDS011;60019;45.556;12.004;2023-08-21T23:43:47;18.23;;;13.32;;
29302;SDS011;60019;45.556;12.004;2023-08-21T23:49:49;16.35;;;12.95;;
29302;SDS011;60019;45.556;12.004;2023-08-21T23:55:51;16.55;;;11.88;;
